หน้าหลัก
METAR-TAF:

METAR-TAF

ท่าอากาศยาน :

นอริช, อังกฤษ

ละติจูด: 52-38N, ลองจิจูด: 001-18E, ความสูง: 14 ม.

การสังเกตสภาพอากาศปัจจุบัน

รายงานได้ทำขึ้นเมื่อ 40 นาทีที่แล้ว ณ เวลา 02:50 UTC
ลมสงบ
อุณหภูมิ 6°C
ความชื้น 100%
ความกดอากาศ 1016 hPa
ทัศนวิสัย 10 กม. หรือมากกว่า

METAR: EGSH 130250Z AUTO 00000KT 9999 NCD 06/06 Q1016

เวลา: 04:30 (03:30 UTC)

การพยากรณ์

รายงานได้ทำขึ้นเมื่อ 1 ชั่วโมงและ 34 นาทีที่แล้ว ณ เวลา 01:56 UTC
การพยากรณ์มีผลตั้งแต่วันที่ 13 ณ เวลา 03 UTC จนถึงวันที่ 13 ณ เวลา 12 UTC
ลม 4 นอตจากทิศทางซึ่งแปรผันได้
ทัศนวิสัย 10 กม. หรือมากกว่า
มีเมฆน้อยที่ความสูง 4000 ฟุต
กำลังกลายเป็น
ตั้งแต่วันที่ 13 ณ เวลา 06 UTC จนถึงวันที่ 13 ณ เวลา 09 UTC
ลม 10 นอตจากตะวันตกเฉียงใต้

TAF: EGSH 130156Z 1303/1312 VRB04KT 9999 FEW040 BECMG 1306/1309 23010KT

สังเกตการณ์สภาพอากาศและพยากรณ์อากาศของสนามบินมากกว่า 4000 แห่ง (รายงาน METAR และ TAF).

สถานีที่ดูได้จะแสดงไว้ด้วยจุดสีเหลืองและสีแดงบนแผนที่.

เลื่อนเมาส์ไปเหนือจุดเพื่อดูชื่อสถานี.

แล้วคลิกเพื่อดูสังเกตการณ์และการพยากรณ์สภาพอากาศ.

ในการเปลี่ยนแผนที่: คลิกที่ปุ่มสีเขียวที่มีกากบาทสีดำเพื่อซูมเข้า; ที่ปุ่มสีเขียวที่มีขีดเพื่อซูมออก; หรือที่ลูกศรสีเขียวเพื่อไปยังแผนที่ที่อยู่ติดกัน.


METAR-TAF: